Disclaimer

Please do not use the information listed here in-flight or in-navigation, as they are not provided to us by the airports but are provided by volunteers, so they might be outdated.

Search


Regions


Airport information page

Radio informations:
EDMONTON RDO - 122.5 MHz

Airport informations:
Latitude: 51° 06' 11.00" N
Longitude: 114° 22' 28.00" W
Elevation: 3939 feet - 1201 meters
Operating hours: N/A
Operating agency: Municipal
Timezone: Second Sunday in March at 0200 to first Sunday in November at 0200 local time (Exception Arizona and that portion of Indiana in the Eastern Time Zone)
Fuel: Jet B, Wide cut turbine fuel, Without icing inhibitor.

100/130 MIL Spec, low lead, aviation gasoline (BLUE)

Runway information:
07/25 - 3400 x 100 feet< - >1036 x 30 meters
16/34 - 3000 x 75 feet< - >914 x 23 meters

Recent METARs:
CYBW 181600Z AUTO 34011KT 9SM OVC070 01/M05 A2987 RMK SLP171
CYBW 181700Z AUTO 32012KT 9SM OVC070 03/M04 A2990 RMK SLP178
CYBW 181700Z AUTO 32012KT 9SM OVC070 03/M04 A2990 RMK SLP178

Airport on the map: